sensor_id;sensor_type;location;lat;lon;timestamp;temperature;humidity
15241;DHT22;7723;52.170;9.978;2022-08-01T00:02:15;19.70;99.90
15241;DHT22;7723;52.170;9.978;2022-08-01T00:04:42;19.70;99.90
15241;DHT22;7723;52.170;9.978;2022-08-01T00:07:09;19.70;99.90
15241;DHT22;7723;52.170;9.978;2022-08-01T00:09:36;19.70;99.90
15241;DHT22;7723;52.170;9.978;2022-08-01T00:12:05;19.70;99.90
15241;DHT22;7723;52.170;9.978;2022-08-01T00:14:32;19.70;99.90
15241;DHT22;7723;52.170;9.978;2022-08-01T00:16:59;19.80;99.90
15241;DHT22;7723;52.170;9.978;2022-08-01T00:19:26;19.80;99.90
15241;DHT22;7723;52.170;9.978;2022-08-01T00:21:53;19.80;99.90
15241;DHT22;7723;52.170;9.978;2022-08-01T00:24:21;19.80;99.90
15241;DHT22;7723;52.170;9.978;2022-08-01T00:26:48;19.80;99.90
15241;DHT22;7723;52.170;9.978;2022-08-01T00:29:16;19.90;99.90
15241;DHT22;7723;52.170;9.978;2022-08-01T00:31:43;19.90;99.90
15241;DHT22;7723;52.170;9.978;2022-08-01T00:34:10;20.00;99.90
15241;DHT22;7723;52.170;9.978;2022-08-01T00:36:37;19.90;99.90
15241;DHT22;7723;52.170;9.978;2022-08-01T00:39:04;19.90;99.90
15241;DHT22;7723;52.170;9.978;2022-08-01T00:41:32;20.00;99.90
15241;DHT22;7723;52.170;9.978;2022-08-01T00:44:02;20.00;99.90
15241;DHT22;7723;52.170;9.978;2022-08-01T00:46:31;20.00;99.90
15241;DHT22;7723;52.170;9.978;2022-08-01T00:48:58;20.00;99.90
15241;DHT22;7723;52.170;9.978;2022-08-01T00:51:26;20.00;99.90
15241;DHT22;7723;52.170;9.978;2022-08-01T00:53:54;20.00;99.90
15241;DHT22;7723;52.170;9.978;2022-08-01T00:56:22;20.00;99.90
15241;DHT22;7723;52.170;9.978;2022-08-01T00:58:50;20.00;99.90
15241;DHT22;7723;52.170;9.978;2022-08-01T01:01:18;20.00;99.90
15241;DHT22;7723;52.170;9.978;2022-08-01T01:03:49;20.00;99.90
15241;DHT22;7723;52.170;9.978;2022-08-01T01:06:26;20.00;99.90
15241;DHT22;7723;52.170;9.978;2022-08-01T01:09:02;20.00;99.90
15241;DHT22;7723;52.170;9.978;2022-08-01T01:11:43;20.00;99.90
15241;DHT22;7723;52.170;9.978;2022-08-01T01:14:21;20.00;99.90
15241;DHT22;7723;52.170;9.978;2022-08-01T01:16:50;20.00;99.90
15241;DHT22;7723;52.170;9.978;2022-08-01T01:19:23;19.90;99.90
15241;DHT22;7723;52.170;9.978;2022-08-01T01:22:08;19.90;99.90
15241;DHT22;7723;52.170;9.978;2022-08-01T01:24:48;19.80;99.90
15241;DHT22;7723;52.170;9.978;2022-08-01T01:27:28;19.80;99.90
15241;DHT22;7723;52.170;9.978;2022-08-01T01:30:01;19.80;99.90
15241;DHT22;7723;52.170;9.978;2022-08-01T01:32:31;19.80;99.90
15241;DHT22;7723;52.170;9.978;2022-08-01T01:35:02;19.80;99.90
15241;DHT22;7723;52.170;9.978;2022-08-01T01:37:32;19.80;99.90
15241;DHT22;7723;52.170;9.978;2022-08-01T01:40:01;19.80;99.90
15241;DHT22;7723;52.170;9.978;2022-08-01T01:42:30;19.80;99.90
15241;DHT22;7723;52.170;9.978;2022-08-01T01:45:00;19.80;99.90
15241;DHT22;7723;52.170;9.978;2022-08-01T01:47:29;19.80;99.90
15241;DHT22;7723;52.170;9.978;2022-08-01T01:49:58;19.80;99.90
15241;DHT22;7723;52.170;9.978;2022-08-01T01:52:27;19.80;99.90
15241;DHT22;7723;52.170;9.978;2022-08-01T01:54:57;19.80;99.90
15241;DHT22;7723;52.170;9.978;2022-08-01T01:57:26;19.80;99.90
15241;DHT22;7723;52.170;9.978;2022-08-01T01:59:55;19.80;99.90
15241;DHT22;7723;52.170;9.978;2022-08-01T02:02:25;19.80;99.90
15241;DHT22;7723;52.170;9.978;2022-08-01T02:04:53;19.80;99.90
15241;DHT22;7723;52.170;9.978;2022-08-01T02:07:25;19.80;99.90
15241;DHT22;7723;52.170;9.978;2022-08-01T02:09:54;19.80;99.90
15241;DHT22;7723;52.170;9.978;2022-08-01T02:12:22;19.70;99.90
15241;DHT22;7723;52.170;9.978;2022-08-01T02:14:52;19.70;99.90
15241;DHT22;7723;52.170;9.978;2022-08-01T02:17:20;19.70;99.90
15241;DHT22;7723;52.170;9.978;2022-08-01T02:19:49;19.60;99.90
15241;DHT22;7723;52.170;9.978;2022-08-01T02:22:19;19.60;99.90
15241;DHT22;7723;52.170;9.978;2022-08-01T02:24:51;19.60;99.90
15241;DHT22;7723;52.170;9.978;2022-08-01T02:27:28;19.70;99.90
15241;DHT22;7723;52.170;9.978;2022-08-01T02:29:58;19.70;99.90
15241;DHT22;7723;52.170;9.978;2022-08-01T02:32:30;19.70;99.90
15241;DHT22;7723;52.170;9.978;2022-08-01T02:35:00;19.80;99.90
15241;DHT22;7723;52.170;9.978;2022-08-01T02:37:33;19.80;99.90
15241;DHT22;7723;52.170;9.978;2022-08-01T02:40:00;19.80;99.90
15241;DHT22;7723;52.170;9.978;2022-08-01T02:42:30;19.80;99.90
15241;DHT22;7723;52.170;9.978;2022-08-01T02:44:59;19.80;99.90
15241;DHT22;7723;52.170;9.978;2022-08-01T02:47:27;19.80;99.90
15241;DHT22;7723;52.170;9.978;2022-08-01T02:49:56;19.80;99.90
15241;DHT22;7723;52.170;9.978;2022-08-01T02:52:26;19.70;99.90
15241;DHT22;7723;52.170;9.978;2022-08-01T02:54:56;19.80;99.90
15241;DHT22;7723;52.170;9.978;2022-08-01T02:57:25;19.70;99.90
15241;DHT22;7723;52.170;9.978;2022-08-01T02:59:53;19.80;99.90
15241;DHT22;7723;52.170;9.978;2022-08-01T03:02:23;19.80;99.90
15241;DHT22;7723;52.170;9.978;2022-08-01T03:04:52;19.70;99.90
15241;DHT22;7723;52.170;9.978;2022-08-01T03:07:21;19.70;99.90
15241;DHT22;7723;52.170;9.978;2022-08-01T03:09:51;19.60;99.90
15241;DHT22;7723;52.170;9.978;2022-08-01T03:12:24;19.50;99.90
15241;DHT22;7723;52.170;9.978;2022-08-01T03:14:54;19.50;99.90
15241;DHT22;7723;52.170;9.978;2022-08-01T03:17:25;19.40;99.90
15241;DHT22;7723;52.170;9.978;2022-08-01T03:19:54;19.50;99.90
15241;DHT22;7723;52.170;9.978;2022-08-01T03:22:23;19.40;99.90
15241;DHT22;7723;52.170;9.978;2022-08-01T03:24:53;19.40;99.90
15241;DHT22;7723;52.170;9.978;2022-08-01T03:27:23;19.40;99.90
15241;DHT22;7723;52.170;9.978;2022-08-01T03:29:51;19.40;99.90
15241;DHT22;7723;52.170;9.978;2022-08-01T03:32:22;19.50;99.90
15241;DHT22;7723;52.170;9.978;2022-08-01T03:34:49;19.50;99.90
15241;DHT22;7723;52.170;9.978;2022-08-01T03:37:28;19.40;99.90
15241;DHT22;7723;52.170;9.978;2022-08-01T03:40:03;19.50;99.90
15241;DHT22;7723;52.170;9.978;2022-08-01T03:42:34;19.50;99.90
15241;DHT22;7723;52.170;9.978;2022-08-01T03:45:04;19.50;99.90
15241;DHT22;7723;52.170;9.978;2022-08-01T03:47:35;19.50;99.90
15241;DHT22;7723;52.170;9.978;2022-08-01T03:50:04;19.60;99.90
15241;DHT22;7723;52.170;9.978;2022-08-01T03:52:33;19.70;99.90
15241;DHT22;7723;52.170;9.978;2022-08-01T03:55:05;19.70;99.90
15241;DHT22;7723;52.170;9.978;2022-08-01T03:57:33;19.70;99.90
15241;DHT22;7723;52.170;9.978;2022-08-01T04:00:02;19.80;99.90
15241;DHT22;7723;52.170;9.978;2022-08-01T04:02:32;19.70;99.90
15241;DHT22;7723;52.170;9.978;2022-08-01T04:04:59;19.70;99.90
15241;DHT22;7723;52.170;9.978;2022-08-01T04:07:28;19.70;99.90
15241;DHT22;7723;52.170;9.978;2022-08-01T04:09:56;19.60;99.90
15241;DHT22;7723;52.170;9.978;2022-08-01T04:12:24;19.60;99.90
15241;DHT22;7723;52.170;9.978;2022-08-01T04:14:51;19.60;99.90
15241;DHT22;7723;52.170;9.978;2022-08-01T04:17:19;19.60;99.90
15241;DHT22;7723;52.170;9.978;2022-08-01T04:19:46;19.60;99.90
15241;DHT22;7723;52.170;9.978;2022-08-01T04:22:14;19.60;99.90
15241;DHT22;7723;52.170;9.978;2022-08-01T04:24:44;19.60;99.90
15241;DHT22;7723;52.170;9.978;2022-08-01T04:27:19;19.70;99.90
15241;DHT22;7723;52.170;9.978;2022-08-01T04:29:50;19.70;99.90
15241;DHT22;7723;52.170;9.978;2022-08-01T04:32:18;19.60;99.90
15241;DHT22;7723;52.170;9.978;2022-08-01T04:34:48;19.60;99.90
15241;DHT22;7723;52.170;9.978;2022-08-01T04:37:16;19.50;99.90
15241;DHT22;7723;52.170;9.978;2022-08-01T04:39:44;19.60;99.90
15241;DHT22;7723;52.170;9.978;2022-08-01T04:42:13;19.50;99.90
15241;DHT22;7723;52.170;9.978;2022-08-01T04:44:41;19.60;99.90
15241;DHT22;7723;52.170;9.978;2022-08-01T04:47:10;19.50;99.90
15241;DHT22;7723;52.170;9.978;2022-08-01T04:49:39;19.50;99.90
15241;DHT22;7723;52.170;9.978;2022-08-01T04:52:06;19.50;99.90
15241;DHT22;7723;52.170;9.978;2022-08-01T04:54:34;19.50;99.90
15241;DHT22;7723;52.170;9.978;2022-08-01T04:57:05;19.40;99.90
15241;DHT22;7723;52.170;9.978;2022-08-01T04:59:36;19.40;99.90
15241;DHT22;7723;52.170;9.978;2022-08-01T05:02:09;19.40;99.90
15241;DHT22;7723;52.170;9.978;2022-08-01T05:04:37;19.40;99.90
15241;DHT22;7723;52.170;9.978;2022-08-01T05:07:05;19.40;99.90
15241;DHT22;7723;52.170;9.978;2022-08-01T05:09:33;19.40;99.90
15241;DHT22;7723;52.170;9.978;2022-08-01T05:12:02;19.30;99.90
15241;DHT22;7723;52.170;9.978;2022-08-01T05:14:29;19.40;99.90
15241;DHT22;7723;52.170;9.978;2022-08-01T05:16:58;19.40;99.90
15241;DHT22;7723;52.170;9.978;2022-08-01T05:19:30;19.40;99.90
15241;DHT22;7723;52.170;9.978;2022-08-01T05:21:58;19.50;99.90
15241;DHT22;7723;52.170;9.978;2022-08-01T05:24:26;19.60;99.90
15241;DHT22;7723;52.170;9.978;2022-08-01T05:26:54;19.60;99.90
15241;DHT22;7723;52.170;9.978;2022-08-01T05:29:21;19.60;99.90
15241;DHT22;7723;52.170;9.978;2022-08-01T05:31:48;19.70;99.90
15241;DHT22;7723;52.170;9.978;2022-08-01T05:34:15;19.70;99.90
15241;DHT22;7723;52.170;9.978;2022-08-01T05:36:44;19.60;99.90
15241;DHT22;7723;52.170;9.978;2022-08-01T05:39:11;19.60;99.90
15241;DHT22;7723;52.170;9.978;2022-08-01T05:41:39;19.60;99.90
15241;DHT22;7723;52.170;9.978;2022-08-01T05:44:06;19.50;99.90
15241;DHT22;7723;52.170;9.978;2022-08-01T05:46:33;19.50;99.90
15241;DHT22;7723;52.170;9.978;2022-08-01T05:49:02;19.40;99.90
15241;DHT22;7723;52.170;9.978;2022-08-01T05:51:29;19.50;99.90
15241;DHT22;7723;52.170;9.978;2022-08-01T05:53:58;19.50;99.90
15241;DHT22;7723;52.170;9.978;2022-08-01T05:56:26;19.50;99.90
15241;DHT22;7723;52.170;9.978;2022-08-01T05:58:53;19.50;99.90
15241;DHT22;7723;52.170;9.978;2022-08-01T06:01:20;19.50;99.90
15241;DHT22;7723;52.170;9.978;2022-08-01T06:03:47;19.50;99.90
15241;DHT22;7723;52.170;9.978;2022-08-01T06:06:14;19.30;99.90
15241;DHT22;7723;52.170;9.978;2022-08-01T06:08:42;19.20;99.90
15241;DHT22;7723;52.170;9.978;2022-08-01T06:11:10;19.30;99.90
15241;DHT22;7723;52.170;9.978;2022-08-01T06:13:37;19.50;99.90
15241;DHT22;7723;52.170;9.978;2022-08-01T06:16:05;19.50;99.90
15241;DHT22;7723;52.170;9.978;2022-08-01T06:18:32;19.50;99.90
15241;DHT22;7723;52.170;9.978;2022-08-01T06:20:59;19.60;99.90
15241;DHT22;7723;52.170;9.978;2022-08-01T06:23:26;19.70;99.90
15241;DHT22;7723;52.170;9.978;2022-08-01T06:25:53;19.70;99.90
15241;DHT22;7723;52.170;9.978;2022-08-01T06:28:22;19.70;99.90
15241;DHT22;7723;52.170;9.978;2022-08-01T06:30:50;19.80;99.90
15241;DHT22;7723;52.170;9.978;2022-08-01T06:33:17;19.70;99.90
15241;DHT22;7723;52.170;9.978;2022-08-01T06:35:44;19.80;99.90
15241;DHT22;7723;52.170;9.978;2022-08-01T06:38:11;20.00;99.90
15241;DHT22;7723;52.170;9.978;2022-08-01T06:40:38;20.10;99.90
15241;DHT22;7723;52.170;9.978;2022-08-01T06:43:05;20.20;99.90
15241;DHT22;7723;52.170;9.978;2022-08-01T06:45:34;20.10;99.90
15241;DHT22;7723;52.170;9.978;2022-08-01T06:48:02;20.20;99.90
15241;DHT22;7723;52.170;9.978;2022-08-01T06:50:31;20.30;99.90
15241;DHT22;7723;52.170;9.978;2022-08-01T06:52:58;20.30;99.90
15241;DHT22;7723;52.170;9.978;2022-08-01T06:55:25;20.40;99.90
15241;DHT22;7723;52.170;9.978;2022-08-01T06:57:52;20.30;99.90
15241;DHT22;7723;52.170;9.978;2022-08-01T07:00:21;20.30;99.90
15241;DHT22;7723;52.170;9.978;2022-08-01T07:02:51;20.40;99.90
15241;DHT22;7723;52.170;9.978;2022-08-01T07:05:18;20.50;99.90
15241;DHT22;7723;52.170;9.978;2022-08-01T07:07:45;20.60;99.90
15241;DHT22;7723;52.170;9.978;2022-08-01T07:10:12;20.60;99.90
15241;DHT22;7723;52.170;9.978;2022-08-01T07:12:39;20.70;99.90
15241;DHT22;7723;52.170;9.978;2022-08-01T07:15:08;20.60;99.90
15241;DHT22;7723;52.170;9.978;2022-08-01T07:17:37;20.60;99.90
15241;DHT22;7723;52.170;9.978;2022-08-01T07:20:08;20.50;99.90
15241;DHT22;7723;52.170;9.978;2022-08-01T07:22:36;20.20;99.90
15241;DHT22;7723;52.170;9.978;2022-08-01T07:25:05;20.00;99.90
15241;DHT22;7723;52.170;9.978;2022-08-01T07:27:32;19.80;99.90
15241;DHT22;7723;52.170;9.978;2022-08-01T07:30:00;19.70;99.90
15241;DHT22;7723;52.170;9.978;2022-08-01T07:32:27;19.40;99.90
15241;DHT22;7723;52.170;9.978;2022-08-01T07:34:55;19.50;99.90
15241;DHT22;7723;52.170;9.978;2022-08-01T07:37:23;19.50;99.90
15241;DHT22;7723;52.170;9.978;2022-08-01T07:39:50;19.50;99.90
15241;DHT22;7723;52.170;9.978;2022-08-01T07:42:18;19.50;99.90
15241;DHT22;7723;52.170;9.978;2022-08-01T07:44:45;19.70;99.90
15241;DHT22;7723;52.170;9.978;2022-08-01T07:47:12;19.70;99.90
15241;DHT22;7723;52.170;9.978;2022-08-01T07:49:39;20.00;99.90
15241;DHT22;7723;52.170;9.978;2022-08-01T07:52:07;20.10;99.90
15241;DHT22;7723;52.170;9.978;2022-08-01T07:54:36;20.10;99.90
15241;DHT22;7723;52.170;9.978;2022-08-01T07:57:03;20.20;99.90
15241;DHT22;7723;52.170;9.978;2022-08-01T07:59:31;20.30;99.90
15241;DHT22;7723;52.170;9.978;2022-08-01T08:01:58;20.50;99.90
15241;DHT22;7723;52.170;9.978;2022-08-01T08:04:25;20.60;99.90
15241;DHT22;7723;52.170;9.978;2022-08-01T08:06:52;20.80;99.90
15241;DHT22;7723;52.170;9.978;2022-08-01T08:09:20;21.00;99.90
15241;DHT22;7723;52.170;9.978;2022-08-01T08:11:48;21.20;99.90
15241;DHT22;7723;52.170;9.978;2022-08-01T08:14:15;21.10;99.90
15241;DHT22;7723;52.170;9.978;2022-08-01T08:16:43;21.10;99.90
15241;DHT22;7723;52.170;9.978;2022-08-01T08:19:10;20.90;99.90
15241;DHT22;7723;52.170;9.978;2022-08-01T08:21:37;20.90;99.90
15241;DHT22;7723;52.170;9.978;2022-08-01T08:24:05;20.90;99.90
15241;DHT22;7723;52.170;9.978;2022-08-01T08:26:52;20.90;99.90
15241;DHT22;7723;52.170;9.978;2022-08-01T08:29:21;20.60;99.90
15241;DHT22;7723;52.170;9.978;2022-08-01T08:31:48;20.60;99.90
15241;DHT22;7723;52.170;9.978;2022-08-01T08:34:16;20.70;99.90
15241;DHT22;7723;52.170;9.978;2022-08-01T08:36:44;20.90;99.90
15241;DHT22;7723;52.170;9.978;2022-08-01T08:39:11;21.20;99.90
15241;DHT22;7723;52.170;9.978;2022-08-01T08:41:38;21.80;99.90
15241;DHT22;7723;52.170;9.978;2022-08-01T08:44:09;22.40;99.90
15241;DHT22;7723;52.170;9.978;2022-08-01T08:46:40;22.90;99.90
15241;DHT22;7723;52.170;9.978;2022-08-01T08:49:08;22.90;99.90
15241;DHT22;7723;52.170;9.978;2022-08-01T08:51:39;22.30;99.90
15241;DHT22;7723;52.170;9.978;2022-08-01T08:54:07;22.20;99.90
15241;DHT22;7723;52.170;9.978;2022-08-01T08:56:35;21.70;99.90
15241;DHT22;7723;52.170;9.978;2022-08-01T08:59:02;21.40;99.90
15241;DHT22;7723;52.170;9.978;2022-08-01T09:01:32;21.30;99.90
15241;DHT22;7723;52.170;9.978;2022-08-01T09:04:01;21.20;99.90
15241;DHT22;7723;52.170;9.978;2022-08-01T09:06:29;21.40;99.90
15241;DHT22;7723;52.170;9.978;2022-08-01T09:08:56;21.00;99.90
15241;DHT22;7723;52.170;9.978;2022-08-01T09:11:23;20.90;99.90
15241;DHT22;7723;52.170;9.978;2022-08-01T09:14:05;20.70;99.90
15241;DHT22;7723;52.170;9.978;2022-08-01T09:16:35;20.80;99.90
15241;DHT22;7723;52.170;9.978;2022-08-01T09:19:11;21.00;99.90
15241;DHT22;7723;52.170;9.978;2022-08-01T09:21:38;21.00;99.90
15241;DHT22;7723;52.170;9.978;2022-08-01T09:24:14;21.00;99.90
15241;DHT22;7723;52.170;9.978;2022-08-01T09:26:42;21.00;99.90
15241;DHT22;7723;52.170;9.978;2022-08-01T09:29:17;21.20;99.90
15241;DHT22;7723;52.170;9.978;2022-08-01T09:31:46;21.10;99.90
15241;DHT22;7723;52.170;9.978;2022-08-01T09:34:14;21.00;99.90
15241;DHT22;7723;52.170;9.978;2022-08-01T09:36:47;21.20;99.90
15241;DHT22;7723;52.170;9.978;2022-08-01T09:39:18;21.30;99.90
15241;DHT22;7723;52.170;9.978;2022-08-01T09:41:45;21.20;99.90
15241;DHT22;7723;52.170;9.978;2022-08-01T09:44:13;21.40;99.90
15241;DHT22;7723;52.170;9.978;2022-08-01T09:46:52;21.40;99.90
15241;DHT22;7723;52.170;9.978;2022-08-01T09:49:30;21.50;99.90
15241;DHT22;7723;52.170;9.978;2022-08-01T09:51:58;21.20;99.90
15241;DHT22;7723;52.170;9.978;2022-08-01T09:54:31;21.20;99.90
15241;DHT22;7723;52.170;9.978;2022-08-01T09:57:16;21.30;99.90
15241;DHT22;7723;52.170;9.978;2022-08-01T09:59:45;21.40;99.90
15241;DHT22;7723;52.170;9.978;2022-08-01T10:02:25;21.30;99.90
15241;DHT22;7723;52.170;9.978;2022-08-01T10:04:53;21.20;99.90
15241;DHT22;7723;52.170;9.978;2022-08-01T10:07:20;21.00;99.90
15241;DHT22;7723;52.170;9.978;2022-08-01T10:09:48;20.80;99.90
15241;DHT22;7723;52.170;9.978;2022-08-01T10:12:17;20.80;99.90
15241;DHT22;7723;52.170;9.978;2022-08-01T10:14:47;20.90;99.90
15241;DHT22;7723;52.170;9.978;2022-08-01T10:17:17;21.00;99.90
15241;DHT22;7723;52.170;9.978;2022-08-01T10:19:45;21.10;99.90
15241;DHT22;7723;52.170;9.978;2022-08-01T10:22:13;21.10;99.90
15241;DHT22;7723;52.170;9.978;2022-08-01T10:24:43;20.90;99.90
15241;DHT22;7723;52.170;9.978;2022-08-01T10:27:14;20.80;99.90
15241;DHT22;7723;52.170;9.978;2022-08-01T10:29:43;20.70;99.90
15241;DHT22;7723;52.170;9.978;2022-08-01T10:32:13;20.60;99.90
15241;DHT22;7723;52.170;9.978;2022-08-01T10:34:42;20.40;99.90
15241;DHT22;7723;52.170;9.978;2022-08-01T10:37:10;20.50;99.90
15241;DHT22;7723;52.170;9.978;2022-08-01T10:39:38;20.60;99.90
15241;DHT22;7723;52.170;9.978;2022-08-01T10:42:06;20.80;99.90
15241;DHT22;7723;52.170;9.978;2022-08-01T10:44:36;20.90;99.90
15241;DHT22;7723;52.170;9.978;2022-08-01T10:47:09;21.20;99.90
15241;DHT22;7723;52.170;9.978;2022-08-01T10:49:43;21.30;99.30
15241;DHT22;7723;52.170;9.978;2022-08-01T10:52:14;21.60;98.60
15241;DHT22;7723;52.170;9.978;2022-08-01T10:54:42;21.80;90.80
15241;DHT22;7723;52.170;9.978;2022-08-01T10:57:09;22.10;89.90
15241;DHT22;7723;52.170;9.978;2022-08-01T10:59:48;22.30;74.80
15241;DHT22;7723;52.170;9.978;2022-08-01T11:02:26;22.20;82.90
15241;DHT22;7723;52.170;9.978;2022-08-01T11:04:58;22.30;70.80
15241;DHT22;7723;52.170;9.978;2022-08-01T11:07:42;22.40;77.40
15241;DHT22;7723;52.170;9.978;2022-08-01T11:10:24;22.20;70.20
15241;DHT22;7723;52.170;9.978;2022-08-01T11:12:52;22.00;72.80
15241;DHT22;7723;52.170;9.978;2022-08-01T11:15:23;21.90;81.50
15241;DHT22;7723;52.170;9.978;2022-08-01T11:17:52;21.80;86.30
15241;DHT22;7723;52.170;9.978;2022-08-01T11:20:20;21.70;78.90
15241;DHT22;7723;52.170;9.978;2022-08-01T11:23:18;21.70;79.50
15241;DHT22;7723;52.170;9.978;2022-08-01T11:26:13;21.80;63.00
15241;DHT22;7723;52.170;9.978;2022-08-01T11:28:42;22.10;69.10
15241;DHT22;7723;52.170;9.978;2022-08-01T11:31:30;22.30;51.80
15241;DHT22;7723;52.170;9.978;2022-08-01T11:33:58;22.40;52.00
15241;DHT22;7723;52.170;9.978;2022-08-01T11:36:26;22.40;54.70
15241;DHT22;7723;52.170;9.978;2022-08-01T11:39:16;22.50;47.50
15241;DHT22;7723;52.170;9.978;2022-08-01T11:41:47;22.60;54.40
15241;DHT22;7723;52.170;9.978;2022-08-01T11:44:16;23.00;47.50
15241;DHT22;7723;52.170;9.978;2022-08-01T11:46:56;23.00;36.50
15241;DHT22;7723;52.170;9.978;2022-08-01T11:49:47;22.80;40.60
15241;DHT22;7723;52.170;9.978;2022-08-01T11:52:18;22.20;40.70
15241;DHT22;7723;52.170;9.978;2022-08-01T11:54:46;21.60;60.30
15241;DHT22;7723;52.170;9.978;2022-08-01T11:57:20;21.30;69.10
15241;DHT22;7723;52.170;9.978;2022-08-01T11:59:49;21.30;72.50
15241;DHT22;7723;52.170;9.978;2022-08-01T12:02:22;21.30;67.40
15241;DHT22;7723;52.170;9.978;2022-08-01T12:04:51;21.60;69.70
15241;DHT22;7723;52.170;9.978;2022-08-01T12:07:19;21.70;56.50
15241;DHT22;7723;52.170;9.978;2022-08-01T12:09:47;21.90;41.10
15241;DHT22;7723;52.170;9.978;2022-08-01T12:12:17;22.00;36.90
15241;DHT22;7723;52.170;9.978;2022-08-01T12:14:45;22.20;40.90
15241;DHT22;7723;52.170;9.978;2022-08-01T12:17:21;22.40;35.30
15241;DHT22;7723;52.170;9.978;2022-08-01T12:19:54;22.60;36.30
15241;DHT22;7723;52.170;9.978;2022-08-01T12:22:23;22.50;31.50
15241;DHT22;7723;52.170;9.978;2022-08-01T12:24:50;22.30;29.20
15241;DHT22;7723;52.170;9.978;2022-08-01T12:27:27;22.30;32.30
15241;DHT22;7723;52.170;9.978;2022-08-01T12:29:55;22.20;35.70
15241;DHT22;7723;52.170;9.978;2022-08-01T12:32:24;22.40;38.10
15241;DHT22;7723;52.170;9.978;2022-08-01T12:34:53;22.30;38.10
15241;DHT22;7723;52.170;9.978;2022-08-01T12:37:21;22.40;43.60
15241;DHT22;7723;52.170;9.978;2022-08-01T12:39:48;22.70;39.80
15241;DHT22;7723;52.170;9.978;2022-08-01T12:42:15;22.80;31.50
15241;DHT22;7723;52.170;9.978;2022-08-01T12:44:46;22.60;27.80
15241;DHT22;7723;52.170;9.978;2022-08-01T12:47:14;22.70;29.60
15241;DHT22;7723;52.170;9.978;2022-08-01T12:49:43;22.90;28.50
15241;DHT22;7723;52.170;9.978;2022-08-01T12:52:12;22.90;28.10
15241;DHT22;7723;52.170;9.978;2022-08-01T12:55:08;23.10;25.80
15241;DHT22;7723;52.170;9.978;2022-08-01T12:57:38;23.30;26.60
15241;DHT22;7723;52.170;9.978;2022-08-01T13:00:22;23.10;23.00
15241;DHT22;7723;52.170;9.978;2022-08-01T13:03:00;23.00;24.80
15241;DHT22;7723;52.170;9.978;2022-08-01T13:05:28;22.90;22.50
15241;DHT22;7723;52.170;9.978;2022-08-01T13:08:10;23.00;17.90
15241;DHT22;7723;52.170;9.978;2022-08-01T13:10:37;23.00;15.60
15241;DHT22;7723;52.170;9.978;2022-08-01T13:13:04;23.10;14.90
15241;DHT22;7723;52.170;9.978;2022-08-01T13:15:35;23.30;16.90
15241;DHT22;7723;52.170;9.978;2022-08-01T13:18:23;23.50;13.90
15241;DHT22;7723;52.170;9.978;2022-08-01T13:20:58;23.70;10.30
15241;DHT22;7723;52.170;9.978;2022-08-01T13:23:33;23.30;9.50
15241;DHT22;7723;52.170;9.978;2022-08-01T13:26:00;22.90;11.70
15241;DHT22;7723;52.170;9.978;2022-08-01T13:28:28;22.70;16.20
15241;DHT22;7723;52.170;9.978;2022-08-01T13:31:03;22.70;15.20
15241;DHT22;7723;52.170;9.978;2022-08-01T13:33:41;22.90;14.40
15241;DHT22;7723;52.170;9.978;2022-08-01T13:36:09;22.80;10.40
15241;DHT22;7723;52.170;9.978;2022-08-01T13:38:36;22.70;12.40
15241;DHT22;7723;52.170;9.978;2022-08-01T13:41:21;22.60;11.50
15241;DHT22;7723;52.170;9.978;2022-08-01T13:43:48;22.40;12.10
15241;DHT22;7723;52.170;9.978;2022-08-01T13:46:17;22.40;11.60
15241;DHT22;7723;52.170;9.978;2022-08-01T13:48:44;22.60;10.40
15241;DHT22;7723;52.170;9.978;2022-08-01T13:51:11;22.50;11.00
15241;DHT22;7723;52.170;9.978;2022-08-01T13:53:38;22.50;9.90
15241;DHT22;7723;52.170;9.978;2022-08-01T13:56:06;22.60;10.60
15241;DHT22;7723;52.170;9.978;2022-08-01T13:58:33;22.90;11.50
15241;DHT22;7723;52.170;9.978;2022-08-01T14:01:00;22.90;10.70
15241;DHT22;7723;52.170;9.978;2022-08-01T14:03:28;23.10;12.00
15241;DHT22;7723;52.170;9.978;2022-08-01T14:05:56;23.30;8.50
15241;DHT22;7723;52.170;9.978;2022-08-01T14:08:23;23.40;7.20
15241;DHT22;7723;52.170;9.978;2022-08-01T14:10:50;23.70;2.60
15241;DHT22;7723;52.170;9.978;2022-08-01T14:13:17;23.40;3.50
15241;DHT22;7723;52.170;9.978;2022-08-01T14:15:44;23.60;3.50
15241;DHT22;7723;52.170;9.978;2022-08-01T14:18:12;23.60;2.70
15241;DHT22;7723;52.170;9.978;2022-08-01T14:20:40;23.70;1.00
15241;DHT22;7723;52.170;9.978;2022-08-01T14:23:07;23.60;1.00
15241;DHT22;7723;52.170;9.978;2022-08-01T14:25:35;23.90;1.00
15241;DHT22;7723;52.170;9.978;2022-08-01T14:28:02;24.10;1.00
15241;DHT22;7723;52.170;9.978;2022-08-01T14:30:29;24.10;1.00
15241;DHT22;7723;52.170;9.978;2022-08-01T14:32:57;24.00;1.00
15241;DHT22;7723;52.170;9.978;2022-08-01T14:35:24;24.00;1.00
15241;DHT22;7723;52.170;9.978;2022-08-01T14:37:52;23.90;1.00
15241;DHT22;7723;52.170;9.978;2022-08-01T14:40:20;23.90;1.00
15241;DHT22;7723;52.170;9.978;2022-08-01T14:42:47;24.00;1.00
15241;DHT22;7723;52.170;9.978;2022-08-01T14:45:14;23.90;1.00
15241;DHT22;7723;52.170;9.978;2022-08-01T14:47:42;23.80;1.00
15241;DHT22;7723;52.170;9.978;2022-08-01T14:50:11;23.80;1.00
15241;DHT22;7723;52.170;9.978;2022-08-01T14:52:39;23.80;1.00
15241;DHT22;7723;52.170;9.978;2022-08-01T14:55:09;23.80;1.00
15241;DHT22;7723;52.170;9.978;2022-08-01T14:57:37;24.10;1.00
15241;DHT22;7723;52.170;9.978;2022-08-01T15:00:06;23.90;1.00
15241;DHT22;7723;52.170;9.978;2022-08-01T15:02:38;24.00;1.00
15241;DHT22;7723;52.170;9.978;2022-08-01T15:05:06;23.70;1.00
15241;DHT22;7723;52.170;9.978;2022-08-01T15:07:34;23.40;1.00
15241;DHT22;7723;52.170;9.978;2022-08-01T15:10:02;23.30;1.00
15241;DHT22;7723;52.170;9.978;2022-08-01T15:12:30;23.10;1.00
15241;DHT22;7723;52.170;9.978;2022-08-01T15:14:59;23.20;1.00
15241;DHT22;7723;52.170;9.978;2022-08-01T15:17:28;23.20;1.00
15241;DHT22;7723;52.170;9.978;2022-08-01T15:19:58;23.20;1.00
15241;DHT22;7723;52.170;9.978;2022-08-01T15:22:34;23.20;1.00
15241;DHT22;7723;52.170;9.978;2022-08-01T15:25:02;23.00;1.00
15241;DHT22;7723;52.170;9.978;2022-08-01T15:27:37;23.00;1.00
15241;DHT22;7723;52.170;9.978;2022-08-01T15:30:06;23.00;1.00
15241;DHT22;7723;52.170;9.978;2022-08-01T15:32:34;23.10;1.00
15241;DHT22;7723;52.170;9.978;2022-08-01T15:35:02;23.10;1.00
15241;DHT22;7723;52.170;9.978;2022-08-01T15:37:29;23.10;1.00
15241;DHT22;7723;52.170;9.978;2022-08-01T15:39:56;23.20;1.00
15241;DHT22;7723;52.170;9.978;2022-08-01T15:42:24;23.30;1.00
15241;DHT22;7723;52.170;9.978;2022-08-01T15:44:52;23.10;1.00
15241;DHT22;7723;52.170;9.978;2022-08-01T15:47:19;23.00;1.00
15241;DHT22;7723;52.170;9.978;2022-08-01T15:49:46;23.00;1.00
15241;DHT22;7723;52.170;9.978;2022-08-01T15:52:14;22.60;1.00
15241;DHT22;7723;52.170;9.978;2022-08-01T15:54:41;22.70;1.00
15241;DHT22;7723;52.170;9.978;2022-08-01T15:57:08;22.80;1.00
15241;DHT22;7723;52.170;9.978;2022-08-01T15:59:35;22.70;1.00
15241;DHT22;7723;52.170;9.978;2022-08-01T16:02:04;22.70;1.00
15241;DHT22;7723;52.170;9.978;2022-08-01T16:04:31;22.60;1.00